EKOD/ODE METAR and TAF weather

Enter ICAO airport designator
Station Type Date Time Source
EKOD METAR 2019/08/25 06:50 UTC NOAA

EKOD 250650Z 12005KT 080V140 CAVOK 19/18 Q1023


Station Type Date Time Source
EKOD Decoded METAR 2019/08/25 06:50 UTC NOAA

Station name not available
Aug 25, 2019 - 02:50 AM EDT / 2019.08.25 0650 UTC
Wind: from the ESE (120 degrees) at 6 MPH (5 KT) (direction variable):0
Visibility: greater than 7 mile(s):0
Temperature: 66 F (19 C)
Dew Point: 64 F (18 C)
Relative Humidity: 93%
Pressure (altimeter): 30.21 in. Hg (1023 hPa)
ob: EKOD 250650Z 12005KT 080V140 CAVOK 19/18 Q1023
cycle: 7

Station Type Date Time Source
EKOD TAF 2015/04/20 17:00 UTC NOAA

TAF
AMD EKOD 201701Z 2017/2018 CNL

Example: see airport list